Time;durP1;ratioP1;P1;durP2;ratioP2;P2;SDS_P1;SDS_P2;PMS_P1;PMS_P2;Temp;Humidity;BMP_temperature;BMP_pressure;BME280_temperature;BME280_humidity;BME280_pressure;Samples;Min_cycle;Max_cycle;Signal;HPM_P1;HPM_P2
2024/02/29 00:01:26;;;;;;;13.35;7.88;;;;;;;6.55;44.64;101391.22;5071682;28;20127;-75
2024/02/29 00:03:54;;;;;;;10.63;7.22;;;;;;;6.54;44.83;101382.16;5081358;28;20046;-75
2024/02/29 00:06:22;;;;;;;13.18;8.35;;;;;;;6.53;44.89;101385.00;5052450;28;20071;-75
2024/02/29 00:08:51;;;;;;;13.77;8.40;;;;;;;6.53;44.92;101376.84;5076879;28;20047;-73
2024/02/29 00:11:21;;;;;;;13.63;8.10;;;;;;;6.50;44.85;101375.19;5055598;28;20039;-74
2024/02/29 00:13:49;;;;;;;13.43;7.50;;;;;;;6.50;44.80;101379.75;5073660;28;20045;-75
2024/02/29 00:16:17;;;;;;;11.65;6.97;;;;;;;6.47;44.83;101369.94;5056464;28;20519;-74
2024/02/29 00:18:45;;;;;;;11.52;7.15;;;;;;;6.46;44.93;101368.19;5074003;28;20411;-74
2024/02/29 00:21:13;;;;;;;12.18;7.53;;;;;;;6.45;44.76;101372.75;5053396;28;20534;-75
2024/02/29 00:23:42;;;;;;;12.13;7.30;;;;;;;6.45;44.79;101366.44;5085237;28;20045;-75
2024/02/29 00:26:14;;;;;;;11.38;7.50;;;;;;;6.43;44.64;101358.41;5047133;28;20075;-75
2024/02/29 00:28:42;;;;;;;11.50;6.95;;;;;;;6.40;44.57;101368.56;5059746;28;20040;-75
2024/02/29 00:31:10;;;;;;;10.77;7.45;;;;;;;6.40;44.78;101360.41;5068564;28;20055;-74
2024/02/29 00:33:37;;;;;;;11.00;6.88;;;;;;;6.39;44.72;101361.38;5072036;28;20090;-74
2024/02/29 00:36:06;;;;;;;10.30;7.22;;;;;;;6.37;44.43;101361.47;5080471;28;20133;-73
2024/02/29 00:38:37;;;;;;;12.27;7.47;;;;;;;6.35;44.34;101360.72;5055205;28;20048;-74
2024/02/29 00:41:05;;;;;;;11.75;7.35;;;;;;;6.35;44.40;101362.56;5076296;28;20402;-74
2024/02/29 00:43:34;;;;;;;10.52;6.70;;;;;;;6.34;44.46;101352.66;5079989;28;20052;-74
2024/02/29 00:46:02;;;;;;;12.00;7.78;;;;;;;6.30;44.62;101348.34;5077373;28;20044;-75
2024/02/29 00:48:31;;;;;;;10.05;6.70;;;;;;;6.29;44.27;101349.31;5066187;28;20070;-75
2024/02/29 00:50:59;;;;;;;11.45;7.00;;;;;;;6.27;44.56;101341.28;5057992;28;20054;-74
2024/02/29 00:53:26;;;;;;;11.23;6.97;;;;;;;6.27;44.10;101351.28;5066914;28;20100;-74
2024/02/29 00:55:54;;;;;;;11.18;6.60;;;;;;;6.26;44.25;101346.81;5074279;28;20059;-74
2024/02/29 00:58:22;;;;;;;9.75;6.45;;;;;;;6.25;44.09;101345.94;5053588;28;20468;-75
2024/02/29 01:00:52;;;;;;;11.55;6.57;;;;;;;6.25;44.34;101343.22;5075935;28;20048;-74
2024/02/29 01:03:20;;;;;;;10.65;6.63;;;;;;;6.22;44.34;101343.41;5054599;28;20041;-75
2024/02/29 01:05:48;;;;;;;11.35;6.85;;;;;;;6.22;44.12;101334.38;5069225;28;20431;-74
2024/02/29 01:08:16;;;;;;;11.40;6.80;;;;;;;6.20;44.19;101330.91;5074757;28;20127;-74
2024/02/29 01:10:43;;;;;;;11.57;6.63;;;;;;;6.19;44.19;101323.69;5076340;28;20537;-75
2024/02/29 01:13:11;;;;;;;12.30;6.85;;;;;;;6.17;44.21;101326.50;5052344;28;20415;-75
2024/02/29 01:15:39;;;;;;;10.25;6.72;;;;;;;6.16;44.09;101324.75;5075300;28;20588;-74
2024/02/29 01:18:09;;;;;;;11.75;7.35;;;;;;;6.17;44.21;101317.47;5053862;28;20082;-75
2024/02/29 01:20:37;;;;;;;12.70;6.90;;;;;;;6.12;44.21;101309.59;5074415;28;20046;-73
2024/02/29 01:23:05;;;;;;;9.48;6.45;;;;;;;6.11;44.27;101299.72;5079522;28;20056;-75
2024/02/29 01:25:33;;;;;;;11.60;6.85;;;;;;;6.09;44.11;101303.50;5058825;28;20044;-74
2024/02/29 01:28:01;;;;;;;11.73;7.13;;;;;;;6.07;44.22;101303.59;5062458;28;20032;-75
2024/02/29 01:30:29;;;;;;;10.65;6.60;;;;;;;6.07;43.86;101304.47;5077542;28;20066;-74
2024/02/29 01:32:57;;;;;;;11.57;7.00;;;;;;;6.04;44.38;101295.59;5065114;28;20054;-74
2024/02/29 01:35:26;;;;;;;11.45;6.82;;;;;;;6.04;44.16;101295.59;5072069;28;20491;-75
2024/02/29 01:37:54;;;;;;;11.20;6.50;;;;;;;5.99;44.11;101290.47;5050722;28;20040;-75
2024/02/29 01:40:22;;;;;;;10.95;6.60;;;;;;;6.00;44.00;101288.63;5079269;28;20472;-74
2024/02/29 01:42:50;;;;;;;9.85;6.60;;;;;;;5.99;44.11;101286.88;5074865;28;20044;-75
2024/02/29 01:45:19;;;;;;;12.73;7.05;;;;;;;5.96;43.99;101287.94;5063167;28;20071;-74
2024/02/29 01:47:46;;;;;;;11.63;6.68;;;;;;;5.96;43.94;101279.78;5060080;28;20086;-75
2024/02/29 01:50:16;;;;;;;12.38;6.60;;;;;;;5.96;44.13;101285.22;5058140;28;20045;-74
2024/02/29 01:52:46;;;;;;;11.80;6.43;;;;;;;5.96;44.12;101279.78;5061663;28;20063;-75
2024/02/29 01:55:14;;;;;;;11.52;6.18;;;;;;;5.95;43.84;101280.75;5085838;28;20047;-74
2024/02/29 01:57:42;;;;;;;10.65;6.63;;;;;;;5.95;44.00;101283.47;5071606;28;20048;-75
2024/02/29 02:00:11;;;;;;;11.82;6.70;;;;;;;5.95;44.20;101280.75;5062194;28;20040;-75
2024/02/29 02:02:39;;;;;;;11.95;6.85;;;;;;;5.94;44.20;101275.44;5056036;28;20094;-75
2024/02/29 02:05:08;;;;;;;12.95;7.00;;;;;;;5.94;44.10;101281.75;5057086;28;20045;-75
2024/02/29 02:07:36;;;;;;;13.73;6.90;;;;;;;5.94;44.03;101273.59;5059546;28;20118;-75
2024/02/29 02:10:10;;;;;;;13.68;7.32;;;;;;;5.95;44.12;101266.31;5058016;28;20068;-75
2024/02/29 02:12:38;;;;;;;12.75;6.60;;;;;;;5.92;44.04;101267.38;5064374;28;20041;-75
2024/02/29 02:15:07;;;;;;;11.98;6.95;;;;;;;5.92;44.06;101264.66;5081251;28;20116;-74
2024/02/29 02:17:35;;;;;;;10.88;6.65;;;;;;;5.91;44.02;101257.47;5047120;28;20045;-74
2024/02/29 02:20:07;;;;;;;11.70;7.05;;;;;;;5.93;44.20;101268.25;5053304;28;20039;-75
2024/02/29 02:22:37;;;;;;;12.30;6.57;;;;;;;5.91;44.08;101256.59;5056548;28;20048;-74
2024/02/29 02:25:05;;;;;;;11.30;6.85;;;;;;;5.92;44.04;101258.34;5075046;28;20460;-75
2024/02/29 02:27:33;;;;;;;12.32;7.28;;;;;;;5.92;44.07;101261.06;5072747;28;20048;-74
2024/02/29 02:30:06;;;;;;;12.07;7.18;;;;;;;5.91;44.26;101257.47;5076233;28;20043;-75
2024/02/29 02:32:35;;;;;;;11.85;6.80;;;;;;;5.91;44.05;101254.75;5051297;28;20075;-75
2024/02/29 02:35:04;;;;;;;11.43;6.78;;;;;;;5.92;44.12;101247.47;5087975;28;20044;-75
2024/02/29 02:37:32;;;;;;;11.88;6.57;;;;;;;5.91;44.24;101238.47;5060540;28;20052;-74
2024/02/29 02:40:04;;;;;;;10.77;6.95;;;;;;;5.92;44.07;101232.06;5082601;28;20120;-74
2024/02/29 02:42:33;;;;;;;11.95;7.00;;;;;;;5.91;44.29;101232.16;5057471;28;20059;-75
2024/02/29 02:45:01;;;;;;;12.98;7.03;;;;;;;5.92;44.29;101225.75;5077066;28;20062;-76
2024/02/29 02:47:28;;;;;;;11.30;6.97;;;;;;;5.91;44.31;101224.88;5059878;28;20051;-74
2024/02/29 02:49:57;;;;;;;12.82;6.75;;;;;;;5.91;44.02;101221.28;5085213;28;20041;-74
2024/02/29 02:52:25;;;;;;;11.88;7.38;;;;;;;5.90;44.33;101212.25;5081474;28;20450;-74
2024/02/29 02:54:53;;;;;;;13.73;7.38;;;;;;;5.90;43.98;101209.53;5081043;28;20041;-75
2024/02/29 02:57:23;;;;;;;13.27;7.32;;;;;;;5.89;44.14;101196.94;5078501;28;20067;-74
2024/02/29 02:59:51;;;;;;;12.02;7.35;;;;;;;5.89;43.98;101196.94;5080086;28;20049;-74
2024/02/29 03:02:19;;;;;;;11.70;7.50;;;;;;;5.86;44.03;101194.41;5074929;28;20037;-75
2024/02/29 03:04:47;;;;;;;12.95;7.57;;;;;;;5.85;44.05;101194.50;5058937;28;20054;-74
2024/02/29 03:07:15;;;;;;;11.90;7.15;;;;;;;5.83;44.18;101191.88;5057346;28;20519;-75
2024/02/29 03:09:43;;;;;;;12.15;7.40;;;;;;;5.83;43.99;101185.56;5070302;28;20044;-75
2024/02/29 03:12:11;;;;;;;12.93;7.25;;;;;;;5.81;43.94;101187.50;5052855;28;20087;-74
2024/02/29 03:14:40;;;;;;;13.48;7.57;;;;;;;5.80;44.16;101175.78;5055879;28;20306;-74
2024/02/29 03:17:09;;;;;;;12.32;7.63;;;;;;;5.78;44.04;101168.72;5078538;28;20076;-75
2024/02/29 03:19:37;;;;;;;12.50;7.38;;;;;;;5.76;44.09;101174.22;5060985;28;20406;-74
2024/02/29 03:22:06;;;;;;;11.15;7.13;;;;;;;5.75;43.93;101166.16;5053369;28;20087;-75
2024/02/29 03:24:39;;;;;;;13.68;7.82;;;;;;;5.73;43.75;101160.84;5065696;28;20077;-74
2024/02/29 03:27:07;;;;;;;14.45;7.40;;;;;;;5.68;43.92;101158.41;5061820;28;20068;-74
2024/02/29 03:29:35;;;;;;;11.18;7.18;;;;;;;5.69;43.89;101156.56;5063087;28;20131;-74
2024/02/29 03:32:04;;;;;;;12.93;7.82;;;;;;;5.68;43.73;101152.13;5054520;28;20040;-74
2024/02/29 03:34:32;;;;;;;12.32;7.95;;;;;;;5.64;43.91;101147.81;5065881;28;20078;-74
2024/02/29 03:37:00;;;;;;;13.80;7.70;;;;;;;5.64;43.91;101142.41;5059036;28;20132;-75
2024/02/29 03:39:28;;;;;;;18.35;8.65;;;;;;;5.61;43.40;101138.06;5060793;28;20044;-74
2024/02/29 03:41:56;;;;;;;14.65;8.32;;;;;;;5.58;43.80;101124.66;5076272;28;20528;-74
2024/02/29 03:44:24;;;;;;;14.13;7.85;;;;;;;5.57;43.67;101120.19;5066944;28;20074;-74
2024/02/29 03:46:53;;;;;;;13.95;7.93;;;;;;;5.56;43.90;101123.00;5052623;28;20463;-73
2024/02/29 03:49:22;;;;;;;14.63;8.23;;;;;;;5.54;43.75;101125.81;5059715;28;20106;-74
2024/02/29 03:51:51;;;;;;;13.10;7.88;;;;;;;5.52;43.74;101111.47;5082958;28;20093;-74
2024/02/29 03:54:19;;;;;;;13.65;8.07;;;;;;;5.51;43.85;101112.44;5073149;28;20036;-74
2024/02/29 03:56:47;;;;;;;14.73;8.05;;;;;;;5.50;43.69;101107.97;5072289;28;20515;-73
2024/02/29 03:59:15;;;;;;;13.80;8.07;;;;;;;5.48;43.85;101111.75;5081115;28;20071;-75
2024/02/29 04:01:47;;;;;;;15.98;9.00;;;;;;;5.49;43.93;101106.22;5056090;28;20607;-75
2024/02/29 04:04:17;;;;;;;14.90;8.60;;;;;;;5.44;43.72;101102.06;5083641;28;20462;-74
2024/02/29 04:06:46;;;;;;;17.10;8.75;;;;;;;5.45;43.97;101104.69;5081902;28;20124;-75
2024/02/29 04:09:14;;;;;;;13.80;7.75;;;;;;;5.43;43.72;101103.91;5064323;28;20086;-75
2024/02/29 04:11:42;;;;;;;14.57;8.13;;;;;;;5.42;43.81;101106.69;5056612;28;20093;-74
2024/02/29 04:14:10;;;;;;;13.93;7.68;;;;;;;5.41;43.85;101110.38;5073101;28;20139;-74
2024/02/29 04:16:39;;;;;;;15.00;8.82;;;;;;;5.40;43.92;101106.78;5076619;28;20041;-75
2024/02/29 04:19:07;;;;;;;15.68;8.65;;;;;;;5.39;44.02;101098.75;5057001;28;20051;-75
2024/02/29 04:21:35;;;;;;;16.25;8.55;;;;;;;5.38;43.86;101095.16;5065324;28;20134;-74
2024/02/29 04:24:06;;;;;;;14.00;8.00;;;;;;;5.41;43.75;101094.09;5077132;28;20425;-75
2024/02/29 04:26:34;;;;;;;14.77;8.35;;;;;;;5.38;43.83;101086.16;5074786;28;20442;-74
2024/02/29 04:29:02;;;;;;;12.55;7.38;;;;;;;5.37;43.49;101084.41;5061568;28;20584;-74
2024/02/29 04:31:30;;;;;;;14.32;8.07;;;;;;;5.36;43.87;101080.81;5080990;28;20051;-74
2024/02/29 04:33:58;;;;;;;13.90;7.78;;;;;;;5.35;43.57;101080.91;5081477;28;20058;-74
2024/02/29 04:36:26;;;;;;;14.82;8.10;;;;;;;5.35;43.95;101083.63;5071131;28;20094;-74
2024/02/29 04:38:54;;;;;;;12.85;7.35;;;;;;;5.36;43.94;101077.25;5085904;28;20040;-75
2024/02/29 04:41:24;;;;;;;14.32;7.90;;;;;;;5.36;43.79;101074.53;5064941;28;20546;-75
2024/02/29 04:43:52;;;;;;;13.45;7.82;;;;;;;5.34;43.71;101071.91;5067587;28;20051;-74
2024/02/29 04:46:19;;;;;;;15.98;7.97;;;;;;;5.30;43.49;101063.06;5058490;28;20033;-74
2024/02/29 04:48:47;;;;;;;13.75;7.90;;;;;;;5.33;43.48;101064.72;5080603;28;20050;-74
2024/02/29 04:51:15;;;;;;;14.75;7.45;;;;;;;5.29;43.50;101064.03;5073003;28;20111;-75
2024/02/29 04:53:43;;;;;;;12.65;6.95;;;;;;;5.30;43.69;101056.75;5065215;28;20135;-75
2024/02/29 04:56:11;;;;;;;13.27;7.18;;;;;;;5.30;43.44;101052.22;5064123;28;20131;-74
2024/02/29 04:58:40;;;;;;;15.07;7.97;;;;;;;5.28;43.23;101059.59;5049641;28;20074;-75
2024/02/29 05:01:08;;;;;;;15.68;8.07;;;;;;;5.27;43.48;101060.56;5057939;28;20050;-75
2024/02/29 05:03:36;;;;;;;13.15;7.50;;;;;;;5.26;43.41;101045.25;5052977;28;20051;-74
2024/02/29 05:06:07;;;;;;;14.50;7.28;;;;;;;5.25;43.33;101045.34;5073400;28;20035;-74
2024/02/29 05:08:35;;;;;;;13.52;7.60;;;;;;;5.23;43.44;101044.56;5060260;28;20146;-74
2024/02/29 05:11:03;;;;;;;13.23;7.65;;;;;;;5.23;43.32;101044.56;5057172;28;20040;-74
2024/02/29 05:13:31;;;;;;;15.13;7.65;;;;;;;5.21;43.22;101041.94;5054245;28;20051;-74
2024/02/29 05:16:03;;;;;;;12.68;7.35;;;;;;;5.21;42.99;101036.50;5058588;28;20058;-74
2024/02/29 05:18:31;;;;;;;14.95;8.55;;;;;;;5.19;43.25;101034.88;5073280;28;20047;-74
2024/02/29 05:20:59;;;;;;;14.65;7.35;;;;;;;5.21;43.07;101027.53;5070894;28;20041;-74
2024/02/29 05:23:27;;;;;;;12.93;7.30;;;;;;;5.20;43.10;101037.50;5054760;28;20396;-75
2024/02/29 05:25:56;;;;;;;13.13;7.07;;;;;;;5.19;43.14;101035.75;5076166;28;20512;-75
2024/02/29 05:28:24;;;;;;;13.60;6.70;;;;;;;5.19;43.03;101033.03;5069607;28;20091;-75
2024/02/29 05:30:51;;;;;;;12.48;7.15;;;;;;;5.18;42.79;101023.16;5080229;28;20063;-74
2024/02/29 05:33:21;;;;;;;12.52;6.57;;;;;;;5.19;42.67;101035.75;5054280;28;20044;-74
2024/02/29 05:35:51;;;;;;;13.38;7.38;;;;;;;5.16;42.66;101033.19;5057778;28;20054;-74
2024/02/29 05:38:19;;;;;;;13.85;7.05;;;;;;;5.16;42.83;101030.47;5071476;28;20070;-76
2024/02/29 05:40:48;;;;;;;14.27;7.97;;;;;;;5.15;42.48;101028.72;5051538;28;20043;-74
2024/02/29 05:43:16;;;;;;;13.95;7.25;;;;;;;5.15;42.59;101027.84;5051766;28;20090;-75
2024/02/29 05:45:49;;;;;;;13.30;7.63;;;;;;;5.16;42.59;101025.03;5083400;28;20123;-75
2024/02/29 05:48:17;;;;;;;12.98;7.47;;;;;;;5.13;42.55;101017.06;5054220;28;21318;-75
2024/02/29 05:50:46;;;;;;;11.40;6.97;;;;;;;5.12;42.47;101015.38;5046407;28;20049;-75
2024/02/29 05:53:15;;;;;;;12.93;7.22;;;;;;;5.11;42.52;101010.91;5056012;28;20599;-75
2024/02/29 05:55:43;;;;;;;14.82;7.60;;;;;;;5.11;42.44;101010.03;5081055;28;20101;-76
2024/02/29 05:58:11;;;;;;;13.93;7.40;;;;;;;5.09;42.54;101009.25;5052136;28;20037;-76
2024/02/29 06:00:40;;;;;;;13.18;7.45;;;;;;;5.09;42.60;101003.81;5081247;28;20114;-75
2024/02/29 06:03:08;;;;;;;14.68;7.85;;;;;;;5.10;42.38;101006.44;5063791;28;20052;-75
2024/02/29 06:05:38;;;;;;;13.30;7.20;;;;;;;5.08;42.52;101002.94;5068518;28;20089;-75
2024/02/29 06:08:07;;;;;;;12.82;7.03;;;;;;;5.11;42.32;101008.19;5051417;28;20094;-75
2024/02/29 06:10:35;;;;;;;12.00;6.93;;;;;;;5.11;42.51;101008.19;5066669;28;20531;-75
2024/02/29 06:13:03;;;;;;;12.43;6.82;;;;;;;5.11;42.60;101013.63;5054202;28;20119;-75
2024/02/29 06:15:32;;;;;;;13.73;7.60;;;;;;;5.11;42.45;101004.59;5062244;28;20048;-73
2024/02/29 06:18:00;;;;;;;12.27;6.60;;;;;;;5.13;42.39;101008.09;5067666;28;20071;-75
2024/02/29 06:20:28;;;;;;;13.98;7.10;;;;;;;5.13;42.13;101002.69;5070001;28;20458;-75
2024/02/29 06:22:56;;;;;;;13.30;7.53;;;;;;;5.12;42.35;100999.09;5083987;28;20044;-75
2024/02/29 06:25:25;;;;;;;12.88;7.13;;;;;;;5.14;42.32;101004.38;5048693;28;20117;-75
2024/02/29 06:27:53;;;;;;;12.90;7.10;;;;;;;5.12;42.43;101004.50;5073860;28;20044;-73
2024/02/29 06:30:21;;;;;;;12.95;7.57;;;;;;;5.12;42.41;101007.22;5070577;28;20062;-75
2024/02/29 06:32:49;;;;;;;12.88;7.47;;;;;;;5.12;42.22;101000.94;5059116;28;20064;-75
2024/02/29 06:35:17;;;;;;;13.63;7.32;;;;;;;5.12;42.46;101007.22;5058770;28;20099;-74
2024/02/29 06:37:45;;;;;;;13.15;7.25;;;;;;;5.12;42.00;100996.38;5076070;28;20083;-75
2024/02/29 06:40:14;;;;;;;14.50;7.38;;;;;;;5.12;42.25;100993.66;5059848;28;20041;-74
2024/02/29 06:42:44;;;;;;;13.57;7.40;;;;;;;5.14;42.37;100999.84;5077063;28;20051;-74
2024/02/29 06:45:12;;;;;;;13.07;7.38;;;;;;;5.11;42.08;101000.06;5060392;28;20066;-75
2024/02/29 06:47:40;;;;;;;15.40;8.40;;;;;;;5.13;42.28;101006.22;5059558;28;20131;-75
2024/02/29 06:50:09;;;;;;;12.75;7.43;;;;;;;5.12;42.26;100999.09;5055738;28;20048;-75
2024/02/29 06:52:37;;;;;;;12.45;7.40;;;;;;;5.13;42.45;100999.97;5081443;28;20503;-75
2024/02/29 06:55:07;;;;;;;14.68;7.93;;;;;;;5.15;42.28;101008.84;5055663;28;20119;-75
2024/02/29 06:57:36;;;;;;;15.23;7.53;;;;;;;5.16;42.60;101002.47;5052412;28;20040;-75
2024/02/29 07:00:08;;;;;;;13.60;7.85;;;;;;;5.18;42.55;101001.44;5054129;28;20090;-75
2024/02/29 07:02:37;;;;;;;13.00;7.07;;;;;;;5.20;43.29;100990.50;5074618;28;20048;-75
2024/02/29 07:05:05;;;;;;;15.60;8.05;;;;;;;5.26;43.36;100992.81;5070313;28;20036;-75
2024/02/29 07:07:33;;;;;;;13.02;8.02;;;;;;;5.32;43.41;100991.53;5060453;28;20044;-75
2024/02/29 07:10:04;;;;;;;16.92;8.48;;;;;;;5.41;43.53;100993.66;5055654;28;20459;-75
2024/02/29 07:12:32;;;;;;;14.38;7.95;;;;;;;5.48;43.62;100995.03;5073629;28;20079;-75
2024/02/29 07:15:00;;;;;;;13.85;8.60;;;;;;;5.56;43.28;100987.25;5065228;28;20043;-75
2024/02/29 07:17:29;;;;;;;14.77;8.27;;;;;;;5.66;43.05;100988.41;5052770;28;20121;-75
2024/02/29 07:19:58;;;;;;;15.98;7.88;;;;;;;5.73;43.06;100983.44;5064648;28;20040;-74
2024/02/29 07:22:26;;;;;;;13.27;7.43;;;;;;;5.81;43.37;100981.97;5059692;28;20044;-74
2024/02/29 07:24:54;;;;;;;15.18;8.02;;;;;;;5.88;43.32;100972.44;5077894;28;20048;-73
2024/02/29 07:27:22;;;;;;;13.82;7.80;;;;;;;5.97;43.03;100981.81;5052635;28;20040;-75
2024/02/29 07:29:50;;;;;;;13.63;7.40;;;;;;;6.04;43.01;100978.59;5046119;28;20127;-76
2024/02/29 07:32:18;;;;;;;13.20;7.85;;;;;;;6.12;43.09;100974.53;5050867;28;20146;-75
2024/02/29 07:34:47;;;;;;;13.80;7.50;;;;;;;6.20;42.85;100978.44;5051519;28;20090;-76
2024/02/29 07:37:15;;;;;;;14.15;8.23;;;;;;;6.26;42.90;100969.88;5077238;28;20044;-75
2024/02/29 07:39:43;;;;;;;14.65;7.22;;;;;;;6.33;42.89;100967.63;5051017;28;20045;-76
2024/02/29 07:42:11;;;;;;;12.30;7.55;;;;;;;6.39;42.75;100967.19;5036586;28;20492;-76
2024/02/29 07:44:39;;;;;;;14.77;8.02;;;;;;;6.47;42.62;100964.81;5056790;28;20150;-76
2024/02/29 07:47:07;;;;;;;11.73;6.97;;;;;;;6.52;42.87;100970.81;5074005;28;20040;-75
2024/02/29 07:49:34;;;;;;;11.93;7.60;;;;;;;6.58;42.97;100962.25;5058634;28;20055;-74
2024/02/29 07:52:04;;;;;;;13.40;7.13;;;;;;;6.67;42.80;100968.88;5076099;28;20131;-75
2024/02/29 07:54:32;;;;;;;15.43;7.75;;;;;;;6.73;42.80;100979.34;5055814;28;20051;-74
2024/02/29 07:57:01;;;;;;;15.20;7.93;;;;;;;6.78;42.59;100969.91;5073696;28;20072;-75
2024/02/29 07:59:29;;;;;;;13.43;7.72;;;;;;;6.84;42.54;100967.75;5062036;28;20051;-74
2024/02/29 08:01:57;;;;;;;13.50;7.75;;;;;;;6.88;42.50;100959.25;5048885;28;20053;-74
2024/02/29 08:04:26;;;;;;;13.98;8.00;;;;;;;6.91;42.53;100960.88;5074866;28;20548;-73
2024/02/29 08:06:54;;;;;;;14.05;8.38;;;;;;;6.95;41.95;100951.50;5071542;28;20581;-73
2024/02/29 08:09:24;;;;;;;12.65;7.53;;;;;;;6.99;41.86;100955.78;5083448;28;20102;-74
2024/02/29 08:11:52;;;;;;;12.07;6.90;;;;;;;6.99;41.82;100948.47;5057267;28;20045;-75
2024/02/29 08:14:20;;;;;;;13.32;7.75;;;;;;;7.02;41.94;100936.53;5072900;28;20876;-74
2024/02/29 08:16:48;;;;;;;13.27;7.82;;;;;;;7.04;41.68;100946.28;5056314;28;20047;-74
2024/02/29 08:19:16;;;;;;;12.07;7.28;;;;;;;7.04;41.77;100935.41;5077545;28;20122;-74
2024/02/29 08:21:44;;;;;;;13.45;7.47;;;;;;;7.08;41.68;100941.50;5078832;28;20054;-74
2024/02/29 08:24:12;;;;;;;12.45;7.40;;;;;;;7.07;41.64;100929.75;5077418;28;20438;-74
2024/02/29 08:26:42;;;;;;;13.48;7.47;;;;;;;7.07;41.43;100931.59;5044314;28;20040;-74
2024/02/29 08:29:13;;;;;;;11.60;7.13;;;;;;;7.07;41.38;100924.31;5060313;28;20120;-78
2024/02/29 08:31:43;;;;;;;11.90;7.18;;;;;;;7.07;41.49;100926.16;5061156;28;20044;-77
2024/02/29 08:34:11;;;;;;;11.13;6.88;;;;;;;7.06;41.74;100925.28;5059891;28;20136;-75
2024/02/29 08:36:39;;;;;;;13.35;6.93;;;;;;;7.08;41.42;100917.00;5060008;28;20047;-75
2024/02/29 08:39:07;;;;;;;10.85;6.18;;;;;;;7.08;41.69;100917.88;5075973;28;20045;-76
2024/02/29 08:41:35;;;;;;;13.27;6.80;;;;;;;7.07;41.64;100910.69;5052648;28;20080;-78
2024/02/29 08:44:05;;;;;;;11.15;6.32;;;;;;;7.08;41.58;100909.72;5049124;28;20045;-77
2024/02/29 08:46:33;;;;;;;11.45;6.57;;;;;;;7.08;41.41;100914.28;5038014;28;20060;-76
2024/02/29 08:49:01;;;;;;;10.32;6.70;;;;;;;7.09;41.36;100911.47;5051434;28;20075;-77
2024/02/29 08:51:31;;;;;;;12.00;6.97;;;;;;;7.10;41.33;100906.91;5066324;28;20506;-76
2024/02/29 08:53:59;;;;;;;11.75;6.45;;;;;;;7.12;41.19;100894.03;5077909;28;20068;-77
2024/02/29 08:56:28;;;;;;;12.60;6.25;;;;;;;7.15;41.48;100904.69;5052462;28;20055;-77
2024/02/29 08:58:56;;;;;;;10.63;6.68;;;;;;;7.14;41.36;100901.09;5070769;28;20044;-77
2024/02/29 09:01:26;;;;;;;10.95;6.25;;;;;;;7.18;41.32;100907.22;5057308;28;20044;-77
2024/02/29 09:03:54;;;;;;;10.75;6.20;;;;;;;7.16;41.47;100892.84;5060948;28;20043;-77
2024/02/29 09:06:22;;;;;;;10.40;5.45;;;;;;;7.18;41.21;100901.78;5059113;28;20051;-77
2024/02/29 09:08:50;;;;;;;12.18;6.45;;;;;;;7.17;41.24;100898.19;5065349;28;20062;-77
2024/02/29 09:11:19;;;;;;;11.85;6.47;;;;;;;7.17;40.99;100887.28;5055527;28;20050;-77
2024/02/29 09:13:47;;;;;;;9.70;6.05;;;;;;;7.19;41.35;100888.03;5059385;28;20064;-77
2024/02/29 09:16:16;;;;;;;11.65;6.35;;;;;;;7.20;41.24;100892.50;5059524;28;20134;-77
2024/02/29 09:18:45;;;;;;;9.65;5.75;;;;;;;7.23;41.07;100883.25;5056208;28;20044;-77
2024/02/29 09:21:14;;;;;;;9.77;5.78;;;;;;;7.23;41.40;100882.38;5067169;28;20449;-77
2024/02/29 09:23:42;;;;;;;10.32;5.97;;;;;;;7.24;41.01;100884.97;5075356;28;20420;-78
2024/02/29 09:26:13;;;;;;;10.25;5.60;;;;;;;7.25;41.26;100878.56;5065815;28;20036;-78
2024/02/29 09:28:40;;;;;;;9.18;5.28;;;;;;;7.28;41.34;100882.88;5056406;28;20040;-77
2024/02/29 09:31:08;;;;;;;10.80;6.25;;;;;;;7.29;41.01;100868.28;5060948;28;20040;-77
2024/02/29 09:33:38;;;;;;;10.10;6.10;;;;;;;7.33;41.09;100859.81;5051861;28;20044;-77
2024/02/29 09:36:11;;;;;;;9.52;5.93;;;;;;;7.35;40.61;100859.69;5052445;28;20576;-77
2024/02/29 09:38:39;;;;;;;10.32;6.32;;;;;;;7.31;40.93;100853.59;5050678;28;20045;-78
2024/02/29 09:41:10;;;;;;;10.43;6.28;;;;;;;7.33;40.97;100851.63;5075514;28;20040;-78
2024/02/29 09:43:59;;;;;;;10.55;6.05;;;;;;;7.36;41.26;100848.66;5055381;28;20112;-77
2024/02/29 09:46:27;;;;;;;11.13;6.18;;;;;;;7.37;41.13;100858.59;5061135;28;20052;-78
2024/02/29 09:48:55;;;;;;;9.10;5.43;;;;;;;7.38;41.01;100854.00;5077486;28;20048;-77
2024/02/29 09:51:26;;;;;;;10.25;5.40;;;;;;;7.41;40.78;100853.78;5059576;28;20044;-77
2024/02/29 09:53:54;;;;;;;10.90;5.85;;;;;;;7.39;40.81;100842.13;5077465;28;20052;-76
2024/02/29 09:56:23;;;;;;;9.13;5.57;;;;;;;7.41;40.80;100845.63;5072200;28;20053;-77
2024/02/29 09:58:53;;;;;;;9.82;6.07;;;;;;;7.41;40.51;100837.44;5072841;28;20135;-77
2024/02/29 10:01:21;;;;;;;12.05;5.40;;;;;;;7.41;40.67;100830.16;5054195;28;20550;-77
2024/02/29 10:03:50;;;;;;;8.80;5.20;;;;;;;7.41;41.02;100832.00;5058736;28;20075;-77
2024/02/29 10:06:18;;;;;;;10.00;5.40;;;;;;;7.42;40.97;100829.19;5080196;28;20045;-78
2024/02/29 10:08:48;;;;;;;11.63;5.97;;;;;;;7.45;40.60;100831.66;5066396;28;20078;-76
2024/02/29 10:11:16;;;;;;;11.38;6.28;;;;;;;7.43;40.79;100824.59;5056580;28;20538;-76
2024/02/29 10:13:44;;;;;;;9.80;5.63;;;;;;;7.45;40.86;100828.06;5070165;28;20050;-77
2024/02/29 10:16:13;;;;;;;10.65;6.03;;;;;;;7.44;40.82;100821.72;5045485;28;20126;-78
2024/02/29 10:18:42;;;;;;;9.57;5.53;;;;;;;7.46;40.92;100814.34;5056621;28;20064;-77
2024/02/29 10:21:11;;;;;;;9.93;5.15;;;;;;;7.49;41.25;100810.50;5063781;28;20048;-77
2024/02/29 10:23:40;;;;;;;8.82;5.57;;;;;;;7.50;41.10;100801.38;5075479;28;20041;-77
2024/02/29 10:26:09;;;;;;;9.63;5.20;;;;;;;7.53;40.94;100799.25;5074519;28;20098;-78
2024/02/29 10:28:37;;;;;;;9.30;5.10;;;;;;;7.54;40.77;100801.00;5079214;28;20044;-78
2024/02/29 10:31:06;;;;;;;9.75;5.68;;;;;;;7.57;40.82;100794.47;5070106;28;20103;-77
2024/02/29 10:33:37;;;;;;;9.57;5.25;;;;;;;7.60;41.09;100793.38;5073891;28;20093;-77
2024/02/29 10:36:11;;;;;;;7.90;5.13;;;;;;;7.62;40.34;100785.94;5058254;28;20075;-78
2024/02/29 10:38:39;;;;;;;10.02;5.05;;;;;;;7.61;41.12;100778.75;5051179;28;20326;-78
2024/02/29 10:41:11;;;;;;;9.23;5.22;;;;;;;7.68;41.08;100788.22;5074343;28;20071;-78
2024/02/29 10:43:42;;;;;;;7.40;4.68;;;;;;;7.71;40.98;100790.66;5059666;28;20245;-76
2024/02/29 10:46:11;;;;;;;8.15;4.65;;;;;;;7.75;40.59;100784.03;5071247;28;20453;-77
2024/02/29 10:48:48;;;;;;;8.27;4.50;;;;;;;7.79;40.57;100772.75;5070200;28;20626;-78
2024/02/29 10:51:24;;;;;;;7.82;4.90;;;;;;;7.81;40.71;100772.63;5058819;28;20045;-78
2024/02/29 10:54:07;;;;;;;7.20;4.55;;;;;;;7.86;40.68;100764.97;5090265;28;20072;-78
2024/02/29 10:56:37;;;;;;;8.00;4.82;;;;;;;7.88;40.62;100758.41;5074741;28;20059;-77
2024/02/29 10:59:07;;;;;;;6.97;4.30;;;;;;;7.91;41.06;100766.38;5078282;28;20134;-77
2024/02/29 11:01:37;;;;;;;7.65;4.55;;;;;;;7.94;41.04;100763.38;5052569;28;20622;-77
2024/02/29 11:04:06;;;;;;;8.25;4.47;;;;;;;8.00;40.62;100763.91;5054773;28;20052;-78
2024/02/29 11:06:38;;;;;;;8.45;4.63;;;;;;;8.04;40.84;100758.09;5068613;28;20041;-78
2024/02/29 11:09:09;;;;;;;7.82;4.75;;;;;;;8.03;41.16;100742.72;5057246;28;20053;-79
2024/02/29 11:11:38;;;;;;;9.20;5.03;;;;;;;8.11;40.74;100744.84;5076892;28;20040;-78
2024/02/29 11:14:11;;;;;;;8.20;4.60;;;;;;;8.16;40.21;100748.13;5064187;28;20032;-79
2024/02/29 11:16:41;;;;;;;7.82;4.40;;;;;;;8.17;40.86;100744.41;5062946;28;20044;-79
2024/02/29 11:19:14;;;;;;;7.15;4.65;;;;;;;8.21;41.20;100732.25;5058150;28;20112;-77
2024/02/29 11:21:42;;;;;;;8.38;4.20;;;;;;;8.22;41.17;100732.13;5079476;28;20036;-78
2024/02/29 11:24:17;;;;;;;7.75;4.03;;;;;;;8.28;40.06;100722.59;5062929;28;20128;-78
2024/02/29 11:26:46;;;;;;;7.32;4.18;;;;;;;8.32;40.51;100724.09;5069009;28;20045;-79
2024/02/29 11:32:12;;;;;;;6.97;4.03;;;;;;;8.37;40.66;100718.25;5049548;28;20053;-79
2024/02/29 11:34:40;;;;;;;7.53;4.40;;;;;;;8.42;41.18;100718.75;5031352;28;20121;-78
2024/02/29 11:37:09;;;;;;;9.43;4.60;;;;;;;8.45;40.92;100704.88;5035086;28;20053;-78